METAR Data
IDs: Format: Raw Decoded Include TAF

Data at: 0155 UTC 10 Dec 2022

METAR for:KLCK (Rickenbacker AFB, OH, US)
Text:KLCK 100055Z AUTO 01006KT 10SM OVC028 06/05 A3015 RMK AO2 T00630047
Temperature: 6.3°C ( 43°F)
Dewpoint: 4.7°C ( 40°F) [RH = 89%]
Pressure (altimeter):30.15 inches Hg (1021.1 mb)
Winds:from the N (10 degrees) at 7 MPH (6 knots; 3.1 m/s)
Visibility:10 or more sm (16+ km)
Ceiling:2800 feet AGL
Clouds: overcast cloud deck at 2800 feet AGL
QC Flag:automated observation with no human augmentation